sensor_id;sensor_type;location;lat;lon;timestamp;temperature;humidity
23267;DHT22;11802;53.160;8.214;2023-01-10T00:00:06;5.10;99.90
23267;DHT22;11802;53.160;8.214;2023-01-10T00:02:32;5.20;99.90
23267;DHT22;11802;53.160;8.214;2023-01-10T00:04:57;5.10;99.90
23267;DHT22;11802;53.160;8.214;2023-01-10T00:07:23;5.20;99.90
23267;DHT22;11802;53.160;8.214;2023-01-10T00:09:48;5.30;99.90
23267;DHT22;11802;53.160;8.214;2023-01-10T00:12:14;5.40;99.90
23267;DHT22;11802;53.160;8.214;2023-01-10T00:14:58;5.50;99.90
23267;DHT22;11802;53.160;8.214;2023-01-10T00:17:24;5.50;99.90
23267;DHT22;11802;53.160;8.214;2023-01-10T00:19:49;5.60;99.90
23267;DHT22;11802;53.160;8.214;2023-01-10T00:22:15;5.70;99.90
23267;DHT22;11802;53.160;8.214;2023-01-10T00:24:43;5.60;99.90
23267;DHT22;11802;53.160;8.214;2023-01-10T00:27:08;5.70;99.90
23267;DHT22;11802;53.160;8.214;2023-01-10T00:29:36;5.60;99.90
23267;DHT22;11802;53.160;8.214;2023-01-10T00:32:02;5.60;99.90
23267;DHT22;11802;53.160;8.214;2023-01-10T00:34:27;5.50;99.90
23267;DHT22;11802;53.160;8.214;2023-01-10T00:36:53;5.40;99.90
23267;DHT22;11802;53.160;8.214;2023-01-10T00:39:18;5.20;99.90
23267;DHT22;11802;53.160;8.214;2023-01-10T00:41:45;5.10;99.90
23267;DHT22;11802;53.160;8.214;2023-01-10T00:44:29;5.10;99.90
23267;DHT22;11802;53.160;8.214;2023-01-10T00:46:55;5.00;99.90
23267;DHT22;11802;53.160;8.214;2023-01-10T00:49:20;5.00;99.90
23267;DHT22;11802;53.160;8.214;2023-01-10T00:51:46;5.00;99.90
23267;DHT22;11802;53.160;8.214;2023-01-10T00:54:13;4.90;99.90
23267;DHT22;11802;53.160;8.214;2023-01-10T00:56:38;4.90;99.90
23267;DHT22;11802;53.160;8.214;2023-01-10T00:59:04;4.90;99.90
23267;DHT22;11802;53.160;8.214;2023-01-10T01:01:31;4.90;99.90
23267;DHT22;11802;53.160;8.214;2023-01-10T01:03:56;4.80;99.90
23267;DHT22;11802;53.160;8.214;2023-01-10T01:06:24;4.80;99.90
23267;DHT22;11802;53.160;8.214;2023-01-10T01:08:49;4.80;99.90
23267;DHT22;11802;53.160;8.214;2023-01-10T01:11:15;4.80;99.90
23267;DHT22;11802;53.160;8.214;2023-01-10T01:13:40;4.80;99.90
23267;DHT22;11802;53.160;8.214;2023-01-10T01:16:06;4.80;99.90
23267;DHT22;11802;53.160;8.214;2023-01-10T01:18:32;4.80;99.90
23267;DHT22;11802;53.160;8.214;2023-01-10T01:20:58;4.80;99.90
23267;DHT22;11802;53.160;8.214;2023-01-10T01:23:29;4.90;99.90
23267;DHT22;11802;53.160;8.214;2023-01-10T01:25:55;5.00;99.90
23267;DHT22;11802;53.160;8.214;2023-01-10T01:28:22;5.00;99.90
23267;DHT22;11802;53.160;8.214;2023-01-10T01:30:48;5.10;99.90
23267;DHT22;11802;53.160;8.214;2023-01-10T01:33:14;5.10;99.90
23267;DHT22;11802;53.160;8.214;2023-01-10T01:35:43;5.20;99.90
23267;DHT22;11802;53.160;8.214;2023-01-10T01:38:09;5.20;99.90
23267;DHT22;11802;53.160;8.214;2023-01-10T01:40:35;5.20;99.90
23267;DHT22;11802;53.160;8.214;2023-01-10T01:43:22;5.20;99.90
23267;DHT22;11802;53.160;8.214;2023-01-10T01:45:48;5.10;99.90
23267;DHT22;11802;53.160;8.214;2023-01-10T01:48:23;5.10;99.90
23267;DHT22;11802;53.160;8.214;2023-01-10T01:51:01;5.10;99.90
23267;DHT22;11802;53.160;8.214;2023-01-10T01:58:57;5.00;99.90
23267;DHT22;11802;53.160;8.214;2023-01-10T02:01:23;5.00;99.90
23267;DHT22;11802;53.160;8.214;2023-01-10T02:03:54;4.90;99.90
23267;DHT22;11802;53.160;8.214;2023-01-10T02:06:22;4.90;99.90
23267;DHT22;11802;53.160;8.214;2023-01-10T02:08:53;4.90;99.90
23267;DHT22;11802;53.160;8.214;2023-01-10T02:11:20;4.90;99.90
23267;DHT22;11802;53.160;8.214;2023-01-10T02:13:47;4.80;99.90
23267;DHT22;11802;53.160;8.214;2023-01-10T02:16:17;4.80;99.90
23267;DHT22;11802;53.160;8.214;2023-01-10T02:18:43;4.80;99.90
23267;DHT22;11802;53.160;8.214;2023-01-10T02:24:13;4.80;99.90
23267;DHT22;11802;53.160;8.214;2023-01-10T02:34:45;4.90;99.90
23267;DHT22;11802;53.160;8.214;2023-01-10T02:38:08;5.00;99.90
23267;DHT22;11802;53.160;8.214;2023-01-10T02:41:00;5.20;99.90
23267;DHT22;11802;53.160;8.214;2023-01-10T02:43:34;5.20;99.90
23267;DHT22;11802;53.160;8.214;2023-01-10T02:46:06;5.30;99.90
23267;DHT22;11802;53.160;8.214;2023-01-10T02:48:33;5.40;99.90
23267;DHT22;11802;53.160;8.214;2023-01-10T02:51:18;5.40;99.90
23267;DHT22;11802;53.160;8.214;2023-01-10T02:53:48;5.50;99.90
23267;DHT22;11802;53.160;8.214;2023-01-10T02:59:51;5.50;99.90
23267;DHT22;11802;53.160;8.214;2023-01-10T03:07:38;5.30;99.90
23267;DHT22;11802;53.160;8.214;2023-01-10T03:10:23;5.20;99.90
23267;DHT22;11802;53.160;8.214;2023-01-10T03:12:54;5.10;99.90
23267;DHT22;11802;53.160;8.214;2023-01-10T03:15:24;5.10;99.90
23267;DHT22;11802;53.160;8.214;2023-01-10T03:17:54;5.00;99.90
23267;DHT22;11802;53.160;8.214;2023-01-10T03:20:22;5.00;99.90
23267;DHT22;11802;53.160;8.214;2023-01-10T03:22:50;5.00;99.90
23267;DHT22;11802;53.160;8.214;2023-01-10T03:25:21;5.00;99.90
23267;DHT22;11802;53.160;8.214;2023-01-10T03:30:40;5.00;99.90
23267;DHT22;11802;53.160;8.214;2023-01-10T03:33:07;5.10;99.90
23267;DHT22;11802;53.160;8.214;2023-01-10T03:35:46;5.10;99.90
23267;DHT22;11802;53.160;8.214;2023-01-10T03:41:08;5.20;99.90
23267;DHT22;11802;53.160;8.214;2023-01-10T03:43:47;5.10;99.90
23267;DHT22;11802;53.160;8.214;2023-01-10T03:47:07;5.10;99.90
23267;DHT22;11802;53.160;8.214;2023-01-10T03:49:36;5.00;99.90
23267;DHT22;11802;53.160;8.214;2023-01-10T03:52:03;5.00;99.90
23267;DHT22;11802;53.160;8.214;2023-01-10T03:54:30;5.10;99.90
23267;DHT22;11802;53.160;8.214;2023-01-10T03:56:55;5.00;99.90
23267;DHT22;11802;53.160;8.214;2023-01-10T03:59:25;5.10;99.90
23267;DHT22;11802;53.160;8.214;2023-01-10T04:01:52;5.10;99.90
23267;DHT22;11802;53.160;8.214;2023-01-10T04:04:18;5.00;99.90
23267;DHT22;11802;53.160;8.214;2023-01-10T04:06:44;5.00;99.90
23267;DHT22;11802;53.160;8.214;2023-01-10T04:09:10;5.00;99.90
23267;DHT22;11802;53.160;8.214;2023-01-10T04:11:35;5.00;99.90
23267;DHT22;11802;53.160;8.214;2023-01-10T04:14:01;5.00;99.90
23267;DHT22;11802;53.160;8.214;2023-01-10T04:16:27;5.00;99.90
23267;DHT22;11802;53.160;8.214;2023-01-10T04:18:52;5.00;99.90
23267;DHT22;11802;53.160;8.214;2023-01-10T04:21:18;5.00;99.90
23267;DHT22;11802;53.160;8.214;2023-01-10T04:23:43;5.00;99.90
23267;DHT22;11802;53.160;8.214;2023-01-10T04:26:10;5.00;99.90
23267;DHT22;11802;53.160;8.214;2023-01-10T04:28:37;4.90;99.90
23267;DHT22;11802;53.160;8.214;2023-01-10T04:31:03;4.80;99.90
23267;DHT22;11802;53.160;8.214;2023-01-10T04:33:29;4.80;99.90
23267;DHT22;11802;53.160;8.214;2023-01-10T04:35:54;4.90;99.90
23267;DHT22;11802;53.160;8.214;2023-01-10T04:38:20;4.90;99.90
23267;DHT22;11802;53.160;8.214;2023-01-10T04:40:55;4.90;99.90
23267;DHT22;11802;53.160;8.214;2023-01-10T04:43:22;5.00;99.90
23267;DHT22;11802;53.160;8.214;2023-01-10T04:45:47;5.00;99.90
23267;DHT22;11802;53.160;8.214;2023-01-10T04:48:13;5.00;99.90
23267;DHT22;11802;53.160;8.214;2023-01-10T04:50:38;5.00;99.90
23267;DHT22;11802;53.160;8.214;2023-01-10T04:53:04;5.00;99.90
23267;DHT22;11802;53.160;8.214;2023-01-10T04:55:31;4.90;99.90
23267;DHT22;11802;53.160;8.214;2023-01-10T04:57:56;4.80;99.90
23267;DHT22;11802;53.160;8.214;2023-01-10T05:00:22;4.80;99.90
23267;DHT22;11802;53.160;8.214;2023-01-10T05:02:47;4.80;99.90
23267;DHT22;11802;53.160;8.214;2023-01-10T05:05:13;4.70;99.90
23267;DHT22;11802;53.160;8.214;2023-01-10T05:07:39;4.70;99.90
23267;DHT22;11802;53.160;8.214;2023-01-10T05:10:06;4.80;99.90
23267;DHT22;11802;53.160;8.214;2023-01-10T05:12:32;4.80;99.90
23267;DHT22;11802;53.160;8.214;2023-01-10T05:14:58;4.90;99.90
23267;DHT22;11802;53.160;8.214;2023-01-10T05:17:23;4.90;99.90
23267;DHT22;11802;53.160;8.214;2023-01-10T05:19:49;5.00;99.90
23267;DHT22;11802;53.160;8.214;2023-01-10T05:22:14;5.10;99.90
23267;DHT22;11802;53.160;8.214;2023-01-10T05:24:40;5.20;99.90
23267;DHT22;11802;53.160;8.214;2023-01-10T05:27:06;5.20;99.90
23267;DHT22;11802;53.160;8.214;2023-01-10T05:29:32;5.20;99.90
23267;DHT22;11802;53.160;8.214;2023-01-10T05:31:58;5.30;99.90
23267;DHT22;11802;53.160;8.214;2023-01-10T05:34:24;5.30;99.90
23267;DHT22;11802;53.160;8.214;2023-01-10T05:36:52;5.30;99.90
23267;DHT22;11802;53.160;8.214;2023-01-10T05:39:18;5.40;99.90
23267;DHT22;11802;53.160;8.214;2023-01-10T05:41:43;5.40;99.90
23267;DHT22;11802;53.160;8.214;2023-01-10T05:44:09;5.40;99.90
23267;DHT22;11802;53.160;8.214;2023-01-10T05:46:37;5.50;99.90
23267;DHT22;11802;53.160;8.214;2023-01-10T05:49:03;5.50;99.90
23267;DHT22;11802;53.160;8.214;2023-01-10T05:51:29;5.50;99.90
23267;DHT22;11802;53.160;8.214;2023-01-10T05:53:54;5.50;99.90
23267;DHT22;11802;53.160;8.214;2023-01-10T05:56:20;5.50;99.90
23267;DHT22;11802;53.160;8.214;2023-01-10T05:58:45;5.50;99.90
23267;DHT22;11802;53.160;8.214;2023-01-10T06:01:11;5.50;99.90
23267;DHT22;11802;53.160;8.214;2023-01-10T06:03:37;5.40;99.90
23267;DHT22;11802;53.160;8.214;2023-01-10T06:06:02;5.40;99.90
23267;DHT22;11802;53.160;8.214;2023-01-10T06:08:28;5.40;99.90
23267;DHT22;11802;53.160;8.214;2023-01-10T06:10:54;5.40;99.90
23267;DHT22;11802;53.160;8.214;2023-01-10T06:13:20;5.30;99.90
23267;DHT22;11802;53.160;8.214;2023-01-10T06:15:46;5.30;99.90
23267;DHT22;11802;53.160;8.214;2023-01-10T06:18:12;5.20;99.90
23267;DHT22;11802;53.160;8.214;2023-01-10T06:20:38;5.10;99.90
23267;DHT22;11802;53.160;8.214;2023-01-10T06:23:03;5.00;99.90
23267;DHT22;11802;53.160;8.214;2023-01-10T06:25:33;5.00;99.90
23267;DHT22;11802;53.160;8.214;2023-01-10T06:28:01;5.30;99.90
23267;DHT22;11802;53.160;8.214;2023-01-10T06:30:27;4.90;99.90
23267;DHT22;11802;53.160;8.214;2023-01-10T06:32:53;4.90;99.90
23267;DHT22;11802;53.160;8.214;2023-01-10T06:35:18;4.80;99.90
23267;DHT22;11802;53.160;8.214;2023-01-10T06:37:44;4.80;99.90
23267;DHT22;11802;53.160;8.214;2023-01-10T06:40:10;4.80;99.90
23267;DHT22;11802;53.160;8.214;2023-01-10T06:42:35;4.80;99.90
23267;DHT22;11802;53.160;8.214;2023-01-10T06:45:01;4.90;99.90
23267;DHT22;11802;53.160;8.214;2023-01-10T06:47:27;4.90;99.90
23267;DHT22;11802;53.160;8.214;2023-01-10T06:49:53;5.00;99.90
23267;DHT22;11802;53.160;8.214;2023-01-10T06:52:18;5.00;99.90
23267;DHT22;11802;53.160;8.214;2023-01-10T06:54:44;5.10;99.90
23267;DHT22;11802;53.160;8.214;2023-01-10T06:57:10;5.10;99.90
23267;DHT22;11802;53.160;8.214;2023-01-10T06:59:35;5.20;99.90
23267;DHT22;11802;53.160;8.214;2023-01-10T07:02:03;5.20;99.90
23267;DHT22;11802;53.160;8.214;2023-01-10T07:04:29;5.20;99.90
23267;DHT22;11802;53.160;8.214;2023-01-10T07:06:54;5.20;99.90
23267;DHT22;11802;53.160;8.214;2023-01-10T07:09:20;5.10;99.90
23267;DHT22;11802;53.160;8.214;2023-01-10T07:11:46;5.10;99.90
23267;DHT22;11802;53.160;8.214;2023-01-10T07:14:11;5.00;99.90
23267;DHT22;11802;53.160;8.214;2023-01-10T07:16:37;5.00;99.90
23267;DHT22;11802;53.160;8.214;2023-01-10T07:19:02;5.00;99.90
23267;DHT22;11802;53.160;8.214;2023-01-10T07:21:28;4.90;99.90
23267;DHT22;11802;53.160;8.214;2023-01-10T07:23:53;4.90;99.90
23267;DHT22;11802;53.160;8.214;2023-01-10T07:26:19;4.90;99.90
23267;DHT22;11802;53.160;8.214;2023-01-10T07:28:47;4.80;99.90
23267;DHT22;11802;53.160;8.214;2023-01-10T07:31:19;4.90;99.90
23267;DHT22;11802;53.160;8.214;2023-01-10T07:33:45;4.90;99.90
23267;DHT22;11802;53.160;8.214;2023-01-10T07:36:11;4.90;99.90
23267;DHT22;11802;53.160;8.214;2023-01-10T07:38:37;4.90;99.90
23267;DHT22;11802;53.160;8.214;2023-01-10T07:41:03;4.90;99.90
23267;DHT22;11802;53.160;8.214;2023-01-10T07:43:29;4.80;99.90
23267;DHT22;11802;53.160;8.214;2023-01-10T07:46:03;4.90;99.90
23267;DHT22;11802;53.160;8.214;2023-01-10T07:48:29;4.90;99.90
23267;DHT22;11802;53.160;8.214;2023-01-10T07:51:00;4.90;99.90
23267;DHT22;11802;53.160;8.214;2023-01-10T07:53:26;4.90;99.90
23267;DHT22;11802;53.160;8.214;2023-01-10T07:55:52;4.80;99.90
23267;DHT22;11802;53.160;8.214;2023-01-10T07:58:18;4.80;99.90
23267;DHT22;11802;53.160;8.214;2023-01-10T08:00:44;4.80;99.90
23267;DHT22;11802;53.160;8.214;2023-01-10T08:03:11;4.80;99.90
23267;DHT22;11802;53.160;8.214;2023-01-10T08:05:37;4.80;99.90
23267;DHT22;11802;53.160;8.214;2023-01-10T08:08:07;4.80;99.90
23267;DHT22;11802;53.160;8.214;2023-01-10T08:10:34;4.90;99.90
23267;DHT22;11802;53.160;8.214;2023-01-10T08:13:00;4.90;99.90
23267;DHT22;11802;53.160;8.214;2023-01-10T08:15:26;4.90;99.90
23267;DHT22;11802;53.160;8.214;2023-01-10T08:18:13;4.90;99.90
23267;DHT22;11802;53.160;8.214;2023-01-10T08:20:49;5.00;99.90
23267;DHT22;11802;53.160;8.214;2023-01-10T08:23:16;5.00;99.90
23267;DHT22;11802;53.160;8.214;2023-01-10T08:25:42;5.00;99.90
23267;DHT22;11802;53.160;8.214;2023-01-10T08:28:08;5.20;99.90
23267;DHT22;11802;53.160;8.214;2023-01-10T08:30:34;5.40;99.90
23267;DHT22;11802;53.160;8.214;2023-01-10T08:33:02;5.40;99.90
23267;DHT22;11802;53.160;8.214;2023-01-10T08:35:35;5.50;99.90
23267;DHT22;11802;53.160;8.214;2023-01-10T08:38:00;5.50;99.90
23267;DHT22;11802;53.160;8.214;2023-01-10T08:40:26;6.10;99.90
23267;DHT22;11802;53.160;8.214;2023-01-10T08:43:00;5.70;99.90
23267;DHT22;11802;53.160;8.214;2023-01-10T08:45:26;5.70;99.90
23267;DHT22;11802;53.160;8.214;2023-01-10T08:47:52;5.80;99.90
23267;DHT22;11802;53.160;8.214;2023-01-10T08:50:18;5.80;99.90
23267;DHT22;11802;53.160;8.214;2023-01-10T08:52:44;5.90;99.90
23267;DHT22;11802;53.160;8.214;2023-01-10T08:55:10;5.90;99.90
23267;DHT22;11802;53.160;8.214;2023-01-10T08:57:35;5.90;99.90
23267;DHT22;11802;53.160;8.214;2023-01-10T09:00:01;6.00;99.90
23267;DHT22;11802;53.160;8.214;2023-01-10T09:02:27;6.10;99.90
23267;DHT22;11802;53.160;8.214;2023-01-10T09:04:52;6.10;99.90
23267;DHT22;11802;53.160;8.214;2023-01-10T09:07:18;6.10;99.90
23267;DHT22;11802;53.160;8.214;2023-01-10T09:09:43;6.10;99.90
23267;DHT22;11802;53.160;8.214;2023-01-10T09:12:09;6.10;99.90
23267;DHT22;11802;53.160;8.214;2023-01-10T09:14:53;6.20;99.90
23267;DHT22;11802;53.160;8.214;2023-01-10T09:17:19;6.30;99.90
23267;DHT22;11802;53.160;8.214;2023-01-10T09:19:45;6.40;99.90
23267;DHT22;11802;53.160;8.214;2023-01-10T09:22:10;6.60;99.90
23267;DHT22;11802;53.160;8.214;2023-01-10T09:24:36;6.90;99.90
23267;DHT22;11802;53.160;8.214;2023-01-10T09:27:02;7.00;99.90
23267;DHT22;11802;53.160;8.214;2023-01-10T09:29:28;7.20;99.90
23267;DHT22;11802;53.160;8.214;2023-01-10T09:31:53;7.40;99.90
23267;DHT22;11802;53.160;8.214;2023-01-10T09:34:19;7.40;99.90
23267;DHT22;11802;53.160;8.214;2023-01-10T09:36:46;7.50;99.90
23267;DHT22;11802;53.160;8.214;2023-01-10T09:39:12;7.40;99.90
23267;DHT22;11802;53.160;8.214;2023-01-10T09:45:19;7.40;99.90
23267;DHT22;11802;53.160;8.214;2023-01-10T09:48:00;7.40;99.90
23267;DHT22;11802;53.160;8.214;2023-01-10T09:53:26;7.40;99.90
23267;DHT22;11802;53.160;8.214;2023-01-10T09:55:57;7.30;99.90
23267;DHT22;11802;53.160;8.214;2023-01-10T09:58:26;7.30;99.90
23267;DHT22;11802;53.160;8.214;2023-01-10T10:00:56;7.30;99.90
23267;DHT22;11802;53.160;8.214;2023-01-10T10:03:53;7.40;99.90
23267;DHT22;11802;53.160;8.214;2023-01-10T10:06:22;7.40;99.90
23267;DHT22;11802;53.160;8.214;2023-01-10T10:08:48;7.40;99.90
23267;DHT22;11802;53.160;8.214;2023-01-10T10:14:06;7.50;99.90
23267;DHT22;11802;53.160;8.214;2023-01-10T10:27:33;7.60;99.90
23267;DHT22;11802;53.160;8.214;2023-01-10T10:30:30;7.60;99.90
23267;DHT22;11802;53.160;8.214;2023-01-10T10:38:46;7.70;99.90
23267;DHT22;11802;53.160;8.214;2023-01-10T10:41:34;7.70;99.90
23267;DHT22;11802;53.160;8.214;2023-01-10T10:44:14;7.70;99.90
23267;DHT22;11802;53.160;8.214;2023-01-10T10:46:43;7.70;99.90
23267;DHT22;11802;53.160;8.214;2023-01-10T10:49:25;7.80;99.90
23267;DHT22;11802;53.160;8.214;2023-01-10T10:51:55;8.00;99.90
23267;DHT22;11802;53.160;8.214;2023-01-10T10:54:20;8.00;99.90
23267;DHT22;11802;53.160;8.214;2023-01-10T10:56:47;8.20;99.90
23267;DHT22;11802;53.160;8.214;2023-01-10T10:59:16;8.30;99.90
23267;DHT22;11802;53.160;8.214;2023-01-10T11:01:45;8.20;99.90
23267;DHT22;11802;53.160;8.214;2023-01-10T11:04:16;8.20;99.90
23267;DHT22;11802;53.160;8.214;2023-01-10T11:06:44;8.10;99.90
23267;DHT22;11802;53.160;8.214;2023-01-10T11:09:15;8.00;99.90
23267;DHT22;11802;53.160;8.214;2023-01-10T11:11:49;7.90;99.90
23267;DHT22;11802;53.160;8.214;2023-01-10T11:14:41;8.00;99.90
23267;DHT22;11802;53.160;8.214;2023-01-10T11:17:29;8.00;99.90
23267;DHT22;11802;53.160;8.214;2023-01-10T11:20:00;8.00;99.90
23267;DHT22;11802;53.160;8.214;2023-01-10T11:22:28;8.00;99.90
23267;DHT22;11802;53.160;8.214;2023-01-10T11:25:01;8.00;99.90
23267;DHT22;11802;53.160;8.214;2023-01-10T11:27:32;8.00;99.90
23267;DHT22;11802;53.160;8.214;2023-01-10T11:30:05;8.00;99.90
23267;DHT22;11802;53.160;8.214;2023-01-10T11:32:37;7.90;99.90
23267;DHT22;11802;53.160;8.214;2023-01-10T11:35:18;7.90;99.90
23267;DHT22;11802;53.160;8.214;2023-01-10T11:38:01;7.90;99.90
23267;DHT22;11802;53.160;8.214;2023-01-10T11:40:33;7.80;99.90
23267;DHT22;11802;53.160;8.214;2023-01-10T11:45:58;7.90;99.90
23267;DHT22;11802;53.160;8.214;2023-01-10T11:48:30;7.80;99.90
23267;DHT22;11802;53.160;8.214;2023-01-10T11:50:57;7.80;99.90
23267;DHT22;11802;53.160;8.214;2023-01-10T11:53:40;7.80;99.90
23267;DHT22;11802;53.160;8.214;2023-01-10T11:56:10;7.80;99.90
23267;DHT22;11802;53.160;8.214;2023-01-10T11:58:37;7.80;99.90
23267;DHT22;11802;53.160;8.214;2023-01-10T12:01:04;7.80;99.90
23267;DHT22;11802;53.160;8.214;2023-01-10T12:03:35;7.80;99.90
23267;DHT22;11802;53.160;8.214;2023-01-10T12:06:06;7.80;99.90
23267;DHT22;11802;53.160;8.214;2023-01-10T12:08:37;7.90;99.90
23267;DHT22;11802;53.160;8.214;2023-01-10T12:11:05;7.90;99.90
23267;DHT22;11802;53.160;8.214;2023-01-10T12:13:58;7.90;99.90
23267;DHT22;11802;53.160;8.214;2023-01-10T12:16:27;8.00;99.90
23267;DHT22;11802;53.160;8.214;2023-01-10T12:18:57;8.00;99.90
23267;DHT22;11802;53.160;8.214;2023-01-10T12:21:34;7.90;99.90
23267;DHT22;11802;53.160;8.214;2023-01-10T12:24:17;8.00;99.90
23267;DHT22;11802;53.160;8.214;2023-01-10T12:26:45;8.00;99.90
23267;DHT22;11802;53.160;8.214;2023-01-10T12:29:14;7.90;99.90
23267;DHT22;11802;53.160;8.214;2023-01-10T12:31:40;7.90;99.90
23267;DHT22;11802;53.160;8.214;2023-01-10T12:34:34;7.90;99.90
23267;DHT22;11802;53.160;8.214;2023-01-10T12:37:20;7.90;99.90
23267;DHT22;11802;53.160;8.214;2023-01-10T12:39:52;7.90;99.90
23267;DHT22;11802;53.160;8.214;2023-01-10T12:43:16;7.90;99.90
23267;DHT22;11802;53.160;8.214;2023-01-10T12:45:52;7.90;99.90
23267;DHT22;11802;53.160;8.214;2023-01-10T12:48:45;7.90;99.90
23267;DHT22;11802;53.160;8.214;2023-01-10T12:51:16;7.90;99.90
23267;DHT22;11802;53.160;8.214;2023-01-10T12:53:51;7.90;99.90
23267;DHT22;11802;53.160;8.214;2023-01-10T12:56:18;7.90;99.90
23267;DHT22;11802;53.160;8.214;2023-01-10T12:58:50;7.90;99.90
23267;DHT22;11802;53.160;8.214;2023-01-10T13:01:22;7.90;99.90
23267;DHT22;11802;53.160;8.214;2023-01-10T13:03:56;7.90;99.90
23267;DHT22;11802;53.160;8.214;2023-01-10T13:06:32;7.90;99.90
23267;DHT22;11802;53.160;8.214;2023-01-10T13:09:02;7.80;99.90
23267;DHT22;11802;53.160;8.214;2023-01-10T13:11:34;7.90;99.90
23267;DHT22;11802;53.160;8.214;2023-01-10T13:14:02;7.90;99.90
23267;DHT22;11802;53.160;8.214;2023-01-10T13:19:18;7.80;99.90
23267;DHT22;11802;53.160;8.214;2023-01-10T13:21:46;7.80;99.90
23267;DHT22;11802;53.160;8.214;2023-01-10T13:24:16;7.80;99.90
23267;DHT22;11802;53.160;8.214;2023-01-10T13:26:58;7.70;99.90
23267;DHT22;11802;53.160;8.214;2023-01-10T13:29:28;7.70;99.90
23267;DHT22;11802;53.160;8.214;2023-01-10T13:31:57;7.60;99.90
23267;DHT22;11802;53.160;8.214;2023-01-10T13:34:32;7.60;99.90
23267;DHT22;11802;53.160;8.214;2023-01-10T13:37:11;7.60;99.90
23267;DHT22;11802;53.160;8.214;2023-01-10T13:39:40;7.60;99.90
23267;DHT22;11802;53.160;8.214;2023-01-10T13:42:20;7.50;99.90
23267;DHT22;11802;53.160;8.214;2023-01-10T13:55:30;7.40;99.90
23267;DHT22;11802;53.160;8.214;2023-01-10T13:58:00;7.50;99.90
23267;DHT22;11802;53.160;8.214;2023-01-10T14:00:42;7.40;99.90
23267;DHT22;11802;53.160;8.214;2023-01-10T14:03:51;7.40;99.90
23267;DHT22;11802;53.160;8.214;2023-01-10T14:11:26;7.40;99.90
23267;DHT22;11802;53.160;8.214;2023-01-10T14:13:56;7.30;99.90
23267;DHT22;11802;53.160;8.214;2023-01-10T14:16:34;7.30;99.90
23267;DHT22;11802;53.160;8.214;2023-01-10T14:19:02;7.30;99.90
23267;DHT22;11802;53.160;8.214;2023-01-10T14:21:31;7.20;99.90
23267;DHT22;11802;53.160;8.214;2023-01-10T14:23:58;7.20;99.90
23267;DHT22;11802;53.160;8.214;2023-01-10T14:26:36;7.20;99.90
23267;DHT22;11802;53.160;8.214;2023-01-10T14:29:07;7.20;99.90
23267;DHT22;11802;53.160;8.214;2023-01-10T14:31:37;7.20;99.90
23267;DHT22;11802;53.160;8.214;2023-01-10T14:34:09;7.10;99.90
23267;DHT22;11802;53.160;8.214;2023-01-10T14:36:58;7.10;99.90
23267;DHT22;11802;53.160;8.214;2023-01-10T14:39:26;7.10;99.90
23267;DHT22;11802;53.160;8.214;2023-01-10T14:41:57;7.00;99.90
23267;DHT22;11802;53.160;8.214;2023-01-10T14:44:34;7.00;99.90
23267;DHT22;11802;53.160;8.214;2023-01-10T14:47:03;7.00;99.90
23267;DHT22;11802;53.160;8.214;2023-01-10T14:49:32;7.00;99.90
23267;DHT22;11802;53.160;8.214;2023-01-10T14:52:19;7.00;99.90
23267;DHT22;11802;53.160;8.214;2023-01-10T14:54:45;6.90;99.90
23267;DHT22;11802;53.160;8.214;2023-01-10T14:57:22;6.90;99.90
23267;DHT22;11802;53.160;8.214;2023-01-10T14:59:49;6.90;99.90
23267;DHT22;11802;53.160;8.214;2023-01-10T15:02:23;6.90;99.90
23267;DHT22;11802;53.160;8.214;2023-01-10T15:04:57;6.90;99.90
23267;DHT22;11802;53.160;8.214;2023-01-10T15:07:25;6.80;99.90
23267;DHT22;11802;53.160;8.214;2023-01-10T15:09:55;6.80;99.90
23267;DHT22;11802;53.160;8.214;2023-01-10T15:12:24;6.80;99.90
23267;DHT22;11802;53.160;8.214;2023-01-10T15:14:57;6.80;99.90
23267;DHT22;11802;53.160;8.214;2023-01-10T15:17:24;6.80;99.90
23267;DHT22;11802;53.160;8.214;2023-01-10T15:19:51;6.70;99.90
23267;DHT22;11802;53.160;8.214;2023-01-10T15:22:30;6.70;99.90
23267;DHT22;11802;53.160;8.214;2023-01-10T15:25:01;6.70;99.90
23267;DHT22;11802;53.160;8.214;2023-01-10T15:27:28;6.70;99.90
23267;DHT22;11802;53.160;8.214;2023-01-10T15:29:55;6.60;99.90
23267;DHT22;11802;53.160;8.214;2023-01-10T15:32:28;6.60;99.90
23267;DHT22;11802;53.160;8.214;2023-01-10T15:34:58;6.70;99.90
23267;DHT22;11802;53.160;8.214;2023-01-10T15:37:26;6.60;99.90
23267;DHT22;11802;53.160;8.214;2023-01-10T15:39:58;6.70;99.90
23267;DHT22;11802;53.160;8.214;2023-01-10T15:42:24;6.70;99.90
23267;DHT22;11802;53.160;8.214;2023-01-10T15:44:50;6.60;99.90
23267;DHT22;11802;53.160;8.214;2023-01-10T15:47:41;6.60;99.90
23267;DHT22;11802;53.160;8.214;2023-01-10T15:52:51;6.60;99.90
23267;DHT22;11802;53.160;8.214;2023-01-10T15:55:35;6.60;99.90
23267;DHT22;11802;53.160;8.214;2023-01-10T15:58:03;6.70;99.90
23267;DHT22;11802;53.160;8.214;2023-01-10T16:00:28;6.60;99.90
23267;DHT22;11802;53.160;8.214;2023-01-10T16:02:55;6.60;99.90
23267;DHT22;11802;53.160;8.214;2023-01-10T16:05:21;6.60;99.90
23267;DHT22;11802;53.160;8.214;2023-01-10T16:07:47;6.60;99.90
23267;DHT22;11802;53.160;8.214;2023-01-10T16:12:43;6.60;99.90
23267;DHT22;11802;53.160;8.214;2023-01-10T16:15:29;6.60;99.90
23267;DHT22;11802;53.160;8.214;2023-01-10T16:17:55;6.60;99.90
23267;DHT22;11802;53.160;8.214;2023-01-10T16:20:37;6.60;99.90
23267;DHT22;11802;53.160;8.214;2023-01-10T16:23:04;6.60;99.90
23267;DHT22;11802;53.160;8.214;2023-01-10T16:25:36;6.70;99.90
23267;DHT22;11802;53.160;8.214;2023-01-10T16:28:03;6.70;99.90
23267;DHT22;11802;53.160;8.214;2023-01-10T16:30:31;6.70;99.90
23267;DHT22;11802;53.160;8.214;2023-01-10T16:32:59;6.70;99.90
23267;DHT22;11802;53.160;8.214;2023-01-10T16:35:26;6.70;99.90
23267;DHT22;11802;53.160;8.214;2023-01-10T16:37:56;6.70;99.90
23267;DHT22;11802;53.160;8.214;2023-01-10T16:40:28;6.70;99.90
23267;DHT22;11802;53.160;8.214;2023-01-10T16:42:57;6.70;99.90
23267;DHT22;11802;53.160;8.214;2023-01-10T16:45:41;6.70;99.90
23267;DHT22;11802;53.160;8.214;2023-01-10T16:48:07;6.70;99.90
23267;DHT22;11802;53.160;8.214;2023-01-10T16:50:32;6.80;99.90
23267;DHT22;11802;53.160;8.214;2023-01-10T16:52:58;6.80;99.90
23267;DHT22;11802;53.160;8.214;2023-01-10T16:55:46;6.80;99.90
23267;DHT22;11802;53.160;8.214;2023-01-10T16:58:13;6.80;99.90
23267;DHT22;11802;53.160;8.214;2023-01-10T17:00:41;6.80;99.90
23267;DHT22;11802;53.160;8.214;2023-01-10T17:03:11;6.90;99.90
23267;DHT22;11802;53.160;8.214;2023-01-10T17:05:38;6.80;99.90
23267;DHT22;11802;53.160;8.214;2023-01-10T17:08:04;6.80;99.90
23267;DHT22;11802;53.160;8.214;2023-01-10T17:10:32;6.80;99.90
23267;DHT22;11802;53.160;8.214;2023-01-10T17:13:00;6.80;99.90
23267;DHT22;11802;53.160;8.214;2023-01-10T17:15:26;6.70;99.90
23267;DHT22;11802;53.160;8.214;2023-01-10T17:17:52;6.70;99.90
23267;DHT22;11802;53.160;8.214;2023-01-10T17:20:18;6.70;99.90
23267;DHT22;11802;53.160;8.214;2023-01-10T17:22:44;6.70;99.90
23267;DHT22;11802;53.160;8.214;2023-01-10T17:25:14;6.70;99.90